Time;durP1;ratioP1;P1;durP2;ratioP2;P2;SDS_P1;SDS_P2;PMS_P1;PMS_P2;Temp;Humidity;BMP_temperature;BMP_pressure;BME280_temperature;BME280_humidity;BME280_pressure;Samples;Min_cycle;Max_cycle;Signal;HPM_P1;HPM_P2
2022/11/12 00:01:44;;;;;;;10.70;7.20;;;;;;;7.24;73.19;98129.35;105175;1297;22585;-78
2022/11/12 00:04:15;;;;;;;10.60;6.60;;;;;;;7.24;73.31;98132.08;105198;1281;25297;-78
2022/11/12 00:06:47;;;;;;;9.60;6.50;;;;;;;7.20;73.54;98133.78;104312;1288;1170786;-78
2022/11/12 00:09:21;;;;;;;12.60;7.60;;;;;;;7.18;73.69;98136.88;105208;1303;24254;-78
2022/11/12 00:11:52;;;;;;;10.90;7.30;;;;;;;7.14;73.76;98139.66;105152;1287;22479;-77
2022/11/12 00:14:24;;;;;;;12.40;6.90;;;;;;;7.09;73.96;98130.77;105188;1289;22466;-78
2022/11/12 00:16:55;;;;;;;11.00;7.20;;;;;;;7.05;74.10;98130.70;105148;1295;22471;-77
2022/11/12 00:19:26;;;;;;;12.00;7.50;;;;;;;7.01;74.41;98133.58;105206;1290;22474;-78
2022/11/12 00:21:58;;;;;;;11.80;7.20;;;;;;;6.98;74.59;98139.63;105174;1294;25394;-78
2022/11/12 00:24:29;;;;;;;14.00;8.60;;;;;;;6.94;74.58;98148.64;105181;1303;24295;-78
2022/11/12 00:27:00;;;;;;;12.10;7.70;;;;;;;6.90;74.79;98148.23;105112;1282;22471;-78
2022/11/12 00:29:31;;;;;;;12.20;7.70;;;;;;;6.92;74.78;98142.05;105184;1297;22472;-78
2022/11/12 00:32:03;;;;;;;10.10;6.40;;;;;;;6.92;74.89;98145.13;105137;1288;22454;-78
2022/11/12 00:34:36;;;;;;;12.40;7.50;;;;;;;6.93;74.87;98147.64;105188;1281;25374;-78
2022/11/12 00:37:08;;;;;;;12.30;7.80;;;;;;;6.92;74.98;98148.21;105160;1288;22509;-78
2022/11/12 00:39:39;;;;;;;10.60;7.10;;;;;;;6.88;75.04;98152.20;105167;1293;25071;-78
2022/11/12 00:42:11;;;;;;;11.70;7.10;;;;;;;6.89;75.18;98150.69;105147;1287;22583;-78
2022/11/12 00:44:44;;;;;;;14.70;7.60;;;;;;;6.88;75.30;98159.38;105199;1295;24260;-78
2022/11/12 00:47:16;;;;;;;11.00;6.50;;;;;;;6.88;75.29;98152.48;105192;1303;22995;-77
2022/11/12 00:49:47;;;;;;;10.40;6.30;;;;;;;6.89;75.37;98154.06;105306;1294;22486;-78
2022/11/12 00:52:21;;;;;;;11.50;6.30;;;;;;;6.91;75.32;98154.50;105313;1303;22480;-77
2022/11/12 00:54:52;;;;;;;9.70;6.60;;;;;;;6.96;75.34;98153.84;105358;1303;23615;-78
2022/11/12 00:57:26;;;;;;;9.70;5.50;;;;;;;6.98;74.99;98150.94;105206;1282;22483;-78
2022/11/12 00:59:57;;;;;;;10.70;6.20;;;;;;;6.98;75.06;98152.31;105205;1287;22479;-78
2022/11/12 01:02:28;;;;;;;12.30;6.30;;;;;;;6.96;75.05;98148.94;105166;1303;22463;-78
2022/11/12 01:05:00;;;;;;;9.80;6.20;;;;;;;6.95;74.95;98150.52;105187;1290;26258;-78
2022/11/12 01:07:33;;;;;;;9.70;5.90;;;;;;;6.93;74.89;98146.62;105119;1294;25436;-78
2022/11/12 01:10:06;;;;;;;9.80;5.50;;;;;;;6.89;74.93;98146.64;105185;1299;22455;-78
2022/11/12 01:12:37;;;;;;;7.50;4.80;;;;;;;6.94;74.75;98143.52;105189;1280;22465;-78
2022/11/12 01:15:10;;;;;;;8.00;4.40;;;;;;;7.03;74.48;98139.21;105183;1288;22518;-78
2022/11/12 01:17:42;;;;;;;7.90;4.50;;;;;;;7.14;74.40;98141.66;105168;1295;22540;-78
2022/11/12 01:20:14;;;;;;;8.10;4.60;;;;;;;7.14;73.98;98139.59;105197;1295;22454;-78
2022/11/12 01:22:45;;;;;;;7.50;4.50;;;;;;;7.10;73.95;98138.91;105186;1303;22931;-78
2022/11/12 01:25:16;;;;;;;8.20;5.00;;;;;;;7.09;74.04;98137.58;105150;1288;22486;-78
2022/11/12 01:27:47;;;;;;;7.90;4.80;;;;;;;7.08;74.00;98130.77;105120;1288;22452;-78
2022/11/12 01:30:21;;;;;;;8.60;4.80;;;;;;;7.04;73.83;98135.80;105174;1287;25307;-78
2022/11/12 01:32:53;;;;;;;7.50;4.90;;;;;;;7.02;73.72;98139.83;105178;1291;22474;-78
2022/11/12 01:35:24;;;;;;;6.80;4.40;;;;;;;6.99;73.87;98142.00;105167;1303;22598;-78
2022/11/12 01:37:58;;;;;;;9.40;5.20;;;;;;;6.97;74.02;98142.48;105125;1294;23277;-78
2022/11/12 01:40:29;;;;;;;11.10;5.70;;;;;;;6.93;74.07;98149.20;105175;1303;22541;-78
2022/11/12 01:43:00;;;;;;;8.20;5.10;;;;;;;6.90;74.14;98147.54;105163;1295;25458;-78
2022/11/12 01:45:32;;;;;;;7.90;5.10;;;;;;;6.90;74.17;98150.73;105170;1288;22495;-78
2022/11/12 01:48:03;;;;;;;8.70;4.80;;;;;;;6.86;74.39;98154.98;105222;1303;24282;-78
2022/11/12 01:50:38;;;;;;;8.50;4.60;;;;;;;6.76;74.25;98152.40;105308;1296;22462;-78
2022/11/12 01:53:13;;;;;;;9.90;4.20;;;;;;;6.67;74.41;98148.74;105313;1285;24333;-78
2022/11/12 01:55:46;;;;;;;7.70;4.40;;;;;;;6.61;74.60;98145.02;105254;1300;25863;-78
2022/11/12 01:58:22;;;;;;;6.90;3.80;;;;;;;6.56;74.76;98143.71;105248;1288;22504;-78
2022/11/12 02:01:00;;;;;;;6.30;3.90;;;;;;;6.54;74.89;98137.70;105322;1295;22640;-78
2022/11/12 02:03:34;;;;;;;6.50;4.00;;;;;;;6.53;74.93;98140.98;105309;1285;22488;-78
2022/11/12 02:06:11;;;;;;;6.10;3.60;;;;;;;6.53;74.90;98139.73;105340;1295;24340;-77
2022/11/12 02:08:44;;;;;;;6.60;3.80;;;;;;;6.50;74.99;98145.75;105301;1303;33156;-78
2022/11/12 02:11:17;;;;;;;8.10;4.30;;;;;;;6.48;75.13;98143.95;105304;1303;24404;-77
2022/11/12 02:14:01;;;;;;;9.40;5.20;;;;;;;6.52;75.18;98142.65;105292;1295;22478;-78
2022/11/12 02:16:36;;;;;;;7.70;4.30;;;;;;;6.65;75.21;98138.84;105272;1301;25392;-77
2022/11/12 02:19:09;;;;;;;7.10;4.20;;;;;;;6.71;75.03;98140.38;105202;1303;22835;-77
2022/11/12 02:21:41;;;;;;;6.70;4.00;;;;;;;6.78;74.84;98137.34;105193;1290;22617;-77
2022/11/12 02:24:38;;;;;;;6.80;4.20;;;;;;;6.82;74.56;98139.37;105182;1303;22452;-78
2022/11/12 02:27:10;;;;;;;7.50;4.60;;;;;;;6.86;74.39;98135.80;105113;1287;22497;-78
2022/11/12 02:29:45;;;;;;;8.80;5.10;;;;;;;6.83;74.21;98139.64;105168;1301;22563;-78
2022/11/12 02:32:17;;;;;;;9.20;5.00;;;;;;;6.70;74.33;98137.52;105196;1303;22498;-78
2022/11/12 02:34:48;;;;;;;7.50;4.70;;;;;;;6.61;74.63;98131.31;105177;1284;25346;-78
2022/11/12 02:37:20;;;;;;;8.10;4.70;;;;;;;6.56;75.00;98132.16;105205;1281;22464;-78
2022/11/12 02:39:51;;;;;;;6.70;4.10;;;;;;;6.56;75.03;98137.07;105292;1293;22533;-78
2022/11/12 02:42:24;;;;;;;8.90;4.80;;;;;;;6.48;74.93;98137.94;105298;1291;22463;-78
2022/11/12 02:44:56;;;;;;;8.50;4.60;;;;;;;6.43;74.91;98143.44;105387;1297;22717;-78
2022/11/12 02:47:27;;;;;;;9.30;4.90;;;;;;;6.41;75.27;98141.27;105269;1291;22547;-78
2022/11/12 02:49:58;;;;;;;9.30;4.50;;;;;;;6.44;75.32;98136.83;105317;1303;22470;-78
2022/11/12 02:52:32;;;;;;;7.70;4.40;;;;;;;6.41;75.39;98131.58;105300;1296;22470;-78
2022/11/12 02:55:04;;;;;;;7.50;4.70;;;;;;;6.36;75.45;98130.53;105270;1302;22471;-78
2022/11/12 02:57:40;;;;;;;10.30;4.90;;;;;;;6.40;75.62;98129.40;105294;1289;24278;-78
2022/11/12 03:00:14;;;;;;;7.90;4.30;;;;;;;6.40;75.59;98126.69;105332;1288;23257;-78
2022/11/12 03:02:57;;;;;;;7.60;4.00;;;;;;;6.35;75.53;98126.69;105293;1294;22518;-78
2022/11/12 03:05:31;;;;;;;6.90;5.00;;;;;;;6.32;75.64;98127.75;105307;1288;22499;-78
2022/11/12 03:08:05;;;;;;;9.60;4.40;;;;;;;6.32;75.75;98130.10;105286;1293;25323;-78
2022/11/12 03:10:39;;;;;;;9.60;5.20;;;;;;;6.34;75.98;98122.96;105309;1303;24163;-78
2022/11/12 03:13:12;;;;;;;7.50;4.50;;;;;;;6.37;75.89;98126.45;105329;1295;22542;-78
2022/11/12 03:15:44;;;;;;;7.70;5.20;;;;;;;6.31;75.94;98121.55;105291;1285;22461;-78
2022/11/12 03:18:15;;;;;;;10.20;6.10;;;;;;;6.30;75.93;98126.64;105261;1296;22536;-78
2022/11/12 03:20:46;;;;;;;9.30;5.80;;;;;;;6.32;76.25;98126.02;105299;1285;25363;-78
2022/11/12 03:23:17;;;;;;;7.50;4.40;;;;;;;6.36;76.18;98124.79;105287;1303;22527;-78
2022/11/12 03:25:49;;;;;;;8.40;5.20;;;;;;;6.38;76.20;98126.95;105346;1301;22525;-78
2022/11/12 03:28:20;;;;;;;8.90;4.60;;;;;;;6.42;76.02;98128.93;105236;1285;25375;-78
2022/11/12 03:30:56;;;;;;;7.90;5.10;;;;;;;6.48;76.03;98125.05;105303;1285;22508;-78
2022/11/12 03:33:27;;;;;;;7.80;5.40;;;;;;;6.52;75.93;98129.52;105310;1285;22472;-78
2022/11/12 03:35:58;;;;;;;8.90;5.10;;;;;;;6.55;76.10;98124.66;105303;1285;23882;-78
2022/11/12 03:38:30;;;;;;;7.90;4.80;;;;;;;6.54;76.04;98122.89;105149;1301;24234;-78
2022/11/12 03:41:01;;;;;;;7.90;4.60;;;;;;;6.54;76.15;98127.59;105146;1294;22472;-78
2022/11/12 03:43:32;;;;;;;8.30;5.10;;;;;;;6.58;75.98;98122.30;105165;1301;22796;-78
2022/11/12 03:46:03;;;;;;;8.60;5.00;;;;;;;6.58;75.93;98125.85;105181;1294;22540;-78
2022/11/12 03:48:34;;;;;;;12.10;6.10;;;;;;;6.55;75.92;98124.06;105120;1296;22457;-78
2022/11/12 03:51:06;;;;;;;7.80;4.50;;;;;;;6.44;75.70;98123.13;105165;1303;25530;-78
2022/11/12 03:53:37;;;;;;;7.30;4.20;;;;;;;6.46;75.82;98123.55;105170;1304;22478;-78
2022/11/12 03:56:08;;;;;;;6.40;3.60;;;;;;;6.53;75.75;98124.86;105170;1309;22541;-78
2022/11/12 03:58:40;;;;;;;8.40;3.90;;;;;;;6.64;75.51;98126.67;105263;1300;40781;-78
2022/11/12 04:01:11;;;;;;;6.80;3.80;;;;;;;6.70;75.38;98128.48;105285;1294;24023;-78
2022/11/12 04:03:42;;;;;;;8.60;4.60;;;;;;;6.74;75.23;98126.93;105301;1303;22476;-78
2022/11/12 04:09:03;;;;;;;4.30;2.60;;;;;;;7.04;74.41;98125.34;105182;1296;22463;-78
2022/11/12 04:11:34;;;;;;;7.20;2.80;;;;;;;7.21;74.11;98122.56;105187;1295;22458;-78
2022/11/12 04:14:05;;;;;;;5.50;2.40;;;;;;;7.35;73.34;98116.33;105188;1306;22482;-78
2022/11/12 04:22:16;;;;;;;8.20;5.00;;;;;;;7.44;72.40;98126.40;105183;1303;22472;-78
2022/11/12 04:27:41;;;;;;;10.80;6.20;;;;;;;6.76;72.86;98128.59;105172;1288;22469;-78
2022/11/12 04:30:17;;;;;;;10.20;6.40;;;;;;;6.44;73.60;98128.20;105313;1300;22522;-78
2022/11/12 04:32:51;;;;;;;9.00;5.80;;;;;;;6.21;74.20;98133.86;105265;1285;27459;-78
2022/11/12 04:35:24;;;;;;;7.40;4.70;;;;;;;6.07;74.61;98132.38;105260;1292;22471;-79
2022/11/12 04:37:56;;;;;;;9.00;5.60;;;;;;;6.01;75.08;98130.55;105142;1304;27907;-78
2022/11/12 04:46:08;;;;;;;9.80;6.70;;;;;;;5.59;76.08;98128.41;105195;1305;22514;-79
2022/11/12 04:48:39;;;;;;;8.40;5.70;;;;;;;5.51;76.59;98124.41;105262;1302;32584;-79
2022/11/12 04:53:55;;;;;;;9.70;5.50;;;;;;;5.47;77.20;98123.10;105237;1287;22475;-79
2022/11/12 04:56:27;;;;;;;10.50;5.90;;;;;;;5.50;77.25;98121.70;105235;1300;28133;-79
2022/11/12 04:58:58;;;;;;;7.20;5.00;;;;;;;5.53;77.43;98116.22;105283;1296;22442;-79
2022/11/12 05:01:29;;;;;;;7.00;5.10;;;;;;;5.59;77.71;98119.46;105272;1297;22471;-79
2022/11/12 05:04:00;;;;;;;9.40;5.20;;;;;;;5.63;77.69;98120.45;105262;1299;22464;-79
2022/11/12 05:09:21;;;;;;;9.40;5.10;;;;;;;5.62;77.69;98115.48;105276;1304;22490;-79
2022/11/12 05:11:54;;;;;;;8.00;5.60;;;;;;;5.61;77.77;98117.06;105267;1285;23789;-79
2022/11/12 05:14:28;;;;;;;9.20;5.30;;;;;;;5.58;78.04;98122.91;105317;1288;22700;-79
2022/11/12 05:16:59;;;;;;;7.40;4.60;;;;;;;5.55;78.00;98125.19;105251;1281;25269;-79
2022/11/12 05:19:34;;;;;;;8.40;4.80;;;;;;;5.53;78.05;98129.26;105238;1296;22502;-79
2022/11/12 05:22:05;;;;;;;7.00;4.60;;;;;;;5.50;78.09;98124.21;105318;1303;22597;-79
2022/11/12 05:24:41;;;;;;;9.00;4.80;;;;;;;5.48;78.06;98125.53;105272;1303;22490;-79
2022/11/12 05:27:15;;;;;;;7.20;5.00;;;;;;;5.51;78.39;98126.63;105235;1305;22508;-79
2022/11/12 05:29:47;;;;;;;7.30;4.70;;;;;;;5.55;78.19;98128.95;105292;1301;22460;-79
2022/11/12 05:32:19;;;;;;;9.20;5.10;;;;;;;5.50;77.94;98132.21;105278;1276;22468;-79
2022/11/12 05:34:52;;;;;;;7.80;4.80;;;;;;;5.47;77.85;98133.02;105250;1281;22467;-79
2022/11/12 05:37:24;;;;;;;8.70;5.00;;;;;;;5.40;78.03;98132.98;105248;1304;22487;-79
2022/11/12 05:39:56;;;;;;;6.40;4.30;;;;;;;5.32;78.39;98136.88;105255;1286;22480;-79
2022/11/12 05:42:28;;;;;;;5.60;3.80;;;;;;;5.42;78.58;98141.27;105305;1300;22475;-79
2022/11/12 05:45:00;;;;;;;6.20;3.50;;;;;;;5.55;78.71;98145.91;105283;1304;22490;-79
2022/11/12 05:47:32;;;;;;;7.10;4.70;;;;;;;5.68;78.49;98143.39;105259;1303;24247;-79
2022/11/12 05:50:05;;;;;;;8.30;4.40;;;;;;;5.81;78.41;98141.05;105264;1288;22464;-79
2022/11/12 05:52:38;;;;;;;7.60;4.00;;;;;;;5.90;78.15;98136.34;105274;1295;22465;-79
2022/11/12 05:55:11;;;;;;;6.90;4.40;;;;;;;6.02;78.31;98134.10;105287;1303;22466;-79
2022/11/12 05:57:43;;;;;;;10.00;5.40;;;;;;;6.05;77.81;98138.43;105274;1300;28786;-79
2022/11/12 06:00:17;;;;;;;9.50;5.60;;;;;;;5.97;77.56;98142.44;105263;1303;22517;-79
2022/11/12 06:02:48;;;;;;;7.40;4.60;;;;;;;5.87;77.55;98146.21;105300;1296;22551;-79
2022/11/12 06:05:20;;;;;;;6.70;3.50;;;;;;;5.83;77.71;98148.55;105242;1303;22518;-79
2022/11/12 06:07:51;;;;;;;6.60;3.50;;;;;;;5.92;77.86;98152.15;105227;1295;22482;-79
2022/11/12 06:10:23;;;;;;;7.40;3.60;;;;;;;5.93;77.68;98155.42;105276;1296;22472;-79
2022/11/12 06:12:55;;;;;;;6.40;3.80;;;;;;;5.96;77.57;98154.55;105259;1294;25478;-79
2022/11/12 06:15:26;;;;;;;7.30;4.20;;;;;;;5.99;77.62;98156.39;105254;1288;22469;-79
2022/11/12 06:17:58;;;;;;;6.50;3.90;;;;;;;6.06;77.65;98161.10;105258;1288;22473;-79
2022/11/12 06:20:29;;;;;;;6.90;3.70;;;;;;;6.11;77.70;98166.91;105264;1302;22617;-79
2022/11/12 06:23:01;;;;;;;7.10;4.60;;;;;;;6.19;77.68;98163.81;105245;1301;22537;-79
2022/11/12 06:25:33;;;;;;;7.90;3.60;;;;;;;6.45;77.72;98164.58;105321;1300;22469;-79
2022/11/12 06:28:05;;;;;;;6.90;3.90;;;;;;;6.87;77.57;98164.03;105182;1296;23801;-79
2022/11/12 06:30:36;;;;;;;8.70;4.90;;;;;;;7.42;77.13;98168.48;105246;1303;22501;-79
2022/11/12 06:33:07;;;;;;;5.10;3.50;;;;;;;7.88;76.21;98166.48;105268;1287;25343;-79
2022/11/12 06:35:38;;;;;;;7.30;3.90;;;;;;;8.28;75.42;98162.59;105303;1289;22507;-79
2022/11/12 06:38:11;;;;;;;6.80;3.70;;;;;;;8.79;74.78;98164.15;105229;1281;24849;-79
2022/11/12 06:40:42;;;;;;;6.00;3.60;;;;;;;9.24;73.79;98165.23;105264;1301;22463;-79
2022/11/12 06:43:13;;;;;;;3.80;2.80;;;;;;;9.72;72.67;98168.52;105293;1288;22507;-79
2022/11/12 06:45:44;;;;;;;4.30;2.70;;;;;;;10.27;71.60;98170.08;105292;1301;22465;-79
2022/11/12 06:48:16;;;;;;;5.40;3.50;;;;;;;10.76;70.00;98170.83;105123;1303;25044;-80
2022/11/12 06:50:47;;;;;;;4.40;2.80;;;;;;;11.23;68.91;98169.42;105179;1303;22472;-80
2022/11/12 06:53:19;;;;;;;3.80;2.60;;;;;;;11.84;68.38;98169.96;105184;1299;22477;-79
2022/11/12 06:55:50;;;;;;;5.10;3.20;;;;;;;12.49;66.98;98172.60;105198;1281;23483;-80
2022/11/12 06:58:21;;;;;;;4.10;2.90;;;;;;;12.88;64.79;98169.58;105158;1275;25402;-80
2022/11/12 07:00:53;;;;;;;4.20;2.80;;;;;;;13.00;64.46;98169.18;105197;1303;23375;-80
2022/11/12 07:03:24;;;;;;;4.00;2.60;;;;;;;13.39;64.03;98166.54;105182;1293;22459;-80
2022/11/12 07:05:55;;;;;;;5.50;2.90;;;;;;;13.82;63.13;98167.77;105186;1298;23423;-80
2022/11/12 07:08:27;;;;;;;3.20;2.30;;;;;;;14.17;61.86;98166.23;105145;1297;25300;-81
2022/11/12 07:10:59;;;;;;;5.60;2.90;;;;;;;14.41;60.41;98167.09;105139;1294;22473;-80
2022/11/12 07:13:32;;;;;;;4.80;3.30;;;;;;;14.52;59.74;98164.20;105173;1303;22734;-80
2022/11/12 07:16:04;;;;;;;3.70;2.30;;;;;;;14.94;59.88;98163.46;105234;1299;23904;-81
2022/11/12 07:18:36;;;;;;;4.90;2.70;;;;;;;15.35;58.17;98162.30;105134;1288;22449;-80
2022/11/12 07:21:11;;;;;;;4.60;2.70;;;;;;;15.58;57.84;98161.71;105199;1288;26693;-81
2022/11/12 07:23:42;;;;;;;6.20;3.30;;;;;;;15.90;56.29;98162.15;105169;1281;22489;-81
2022/11/12 07:26:16;;;;;;;5.10;3.40;;;;;;;15.75;55.03;98163.28;105172;1296;22485;-80
2022/11/12 07:28:49;;;;;;;5.20;2.60;;;;;;;15.73;54.55;98161.67;105218;1303;22551;-80
2022/11/12 07:31:21;;;;;;;4.60;3.10;;;;;;;15.91;54.47;98161.83;105183;1304;24281;-80
2022/11/12 07:33:52;;;;;;;4.10;2.80;;;;;;;15.97;53.54;98159.19;105164;1282;24125;-80
2022/11/12 07:36:24;;;;;;;2.50;2.20;;;;;;;15.97;53.37;98155.00;105134;1306;22965;-80
2022/11/12 07:38:56;;;;;;;4.80;3.10;;;;;;;16.01;52.70;98156.73;105152;1306;22480;-80
2022/11/12 07:41:27;;;;;;;5.20;3.20;;;;;;;15.94;52.45;98157.42;105189;1306;24281;-80
2022/11/12 07:43:59;;;;;;;4.60;2.60;;;;;;;15.91;52.42;98156.64;105179;1291;22476;-80
2022/11/12 07:46:30;;;;;;;4.10;2.40;;;;;;;15.94;52.20;98151.17;105134;1289;22551;-81
2022/11/12 07:49:02;;;;;;;5.60;2.70;;;;;;;15.84;51.75;98153.40;105183;1305;24284;-80
2022/11/12 07:51:34;;;;;;;4.40;2.90;;;;;;;15.82;52.14;98151.17;105192;1304;22482;-80
2022/11/12 07:54:08;;;;;;;4.40;2.40;;;;;;;16.09;52.58;98152.38;105159;1305;22498;-80
2022/11/12 07:56:40;;;;;;;5.40;3.10;;;;;;;16.06;51.53;98149.71;105135;1303;24257;-81
2022/11/12 07:59:11;;;;;;;3.70;2.60;;;;;;;15.87;50.94;98152.70;105173;1303;22456;-80
2022/11/12 08:01:44;;;;;;;5.70;3.10;;;;;;;15.61;50.95;98151.35;105158;1303;23654;-81
2022/11/12 08:04:15;;;;;;;4.60;3.10;;;;;;;15.36;51.05;98155.08;105159;1284;22492;-80
2022/11/12 08:06:48;;;;;;;7.20;3.30;;;;;;;15.28;51.58;98151.08;105140;1303;22449;-80
2022/11/12 08:09:19;;;;;;;4.60;3.00;;;;;;;15.36;52.03;98155.40;105161;1282;26494;-80
2022/11/12 08:11:50;;;;;;;4.00;2.40;;;;;;;15.41;51.53;98156.62;105180;1288;25367;-81
2022/11/12 08:14:21;;;;;;;5.80;2.60;;;;;;;15.16;51.46;98156.34;105164;1295;22501;-80
2022/11/12 08:16:53;;;;;;;4.00;2.80;;;;;;;14.80;52.18;98159.36;105117;1298;23557;-81
2022/11/12 08:19:24;;;;;;;5.80;3.00;;;;;;;14.55;52.29;98162.60;105171;1295;22488;-80
2022/11/12 08:21:56;;;;;;;5.10;2.50;;;;;;;14.34;52.42;98165.58;105172;1303;22471;-81
2022/11/12 08:24:27;;;;;;;3.10;2.10;;;;;;;14.20;53.09;98170.39;105202;1303;22507;-81
2022/11/12 08:26:58;;;;;;;2.20;1.80;;;;;;;14.18;53.25;98171.30;105117;1289;23417;-80
2022/11/12 08:29:30;;;;;;;4.80;3.10;;;;;;;13.98;52.75;98167.62;105184;1303;25223;-81
2022/11/12 08:32:04;;;;;;;5.10;2.50;;;;;;;13.68;53.12;98165.15;105177;1302;22499;-81
2022/11/12 08:34:40;;;;;;;5.80;2.50;;;;;;;13.48;53.22;98173.63;105233;1282;25219;-81
2022/11/12 08:37:14;;;;;;;4.20;2.30;;;;;;;13.39;53.87;98170.39;105171;1288;22608;-80
2022/11/12 08:39:45;;;;;;;2.90;1.90;;;;;;;13.26;54.22;98172.29;105200;1296;22537;-80
2022/11/12 08:42:17;;;;;;;3.70;2.20;;;;;;;13.15;54.63;98174.73;105188;1295;24266;-81
2022/11/12 08:44:49;;;;;;;3.90;2.20;;;;;;;13.09;54.72;98174.58;105190;1301;22928;-80
2022/11/12 08:47:20;;;;;;;4.20;1.90;;;;;;;13.03;54.99;98174.27;105156;1298;22479;-81
2022/11/12 08:49:52;;;;;;;6.40;2.60;;;;;;;12.99;55.45;98176.74;105178;1303;22746;-81
2022/11/12 08:52:23;;;;;;;4.50;2.10;;;;;;;13.04;55.94;98181.41;105201;1295;22625;-80
2022/11/12 08:54:54;;;;;;;4.40;1.90;;;;;;;13.13;55.97;98174.98;105191;1288;22472;-81
2022/11/12 08:57:25;;;;;;;3.70;1.90;;;;;;;13.20;56.35;98176.81;105128;1282;24305;-81
2022/11/12 08:59:56;;;;;;;2.60;1.50;;;;;;;13.26;56.32;98175.75;105187;1295;22470;-81
2022/11/12 09:02:28;;;;;;;3.20;1.20;;;;;;;13.23;56.11;98180.02;105177;1279;22541;-81
2022/11/12 09:05:00;;;;;;;2.00;1.40;;;;;;;13.19;56.22;98181.38;105174;1302;22498;-81
2022/11/12 09:07:31;;;;;;;2.20;1.20;;;;;;;13.21;56.29;98184.05;105143;1303;25339;-81
2022/11/12 09:10:04;;;;;;;3.80;1.30;;;;;;;13.11;55.96;98186.05;105187;1295;25333;-81
2022/11/12 09:12:35;;;;;;;2.50;1.40;;;;;;;13.01;56.08;98188.70;105217;1303;22503;-80
2022/11/12 09:15:09;;;;;;;2.00;1.20;;;;;;;13.11;56.01;98188.92;105189;1303;22620;-80
2022/11/12 09:17:40;;;;;;;2.50;1.00;;;;;;;13.04;55.44;98187.16;105157;1297;22504;-80
2022/11/12 09:20:13;;;;;;;1.80;1.10;;;;;;;13.05;56.15;98190.16;105191;1303;22472;-80
2022/11/12 09:22:44;;;;;;;2.30;1.30;;;;;;;13.15;55.66;98185.91;105235;1292;22608;-80
2022/11/12 09:25:16;;;;;;;3.30;1.60;;;;;;;13.10;56.32;98185.57;105165;1295;22511;-80
2022/11/12 09:27:48;;;;;;;3.50;1.70;;;;;;;13.06;56.52;98184.84;105153;1295;27040;-79
2022/11/12 09:30:19;;;;;;;3.70;1.60;;;;;;;13.02;56.69;98181.30;105156;1303;22528;-79
2022/11/12 09:32:56;;;;;;;3.90;1.70;;;;;;;13.10;57.23;98180.93;105195;1287;22475;-79
2022/11/12 09:35:28;;;;;;;2.60;1.30;;;;;;;13.21;57.03;98179.54;105171;1288;22490;-79
2022/11/12 09:38:00;;;;;;;3.60;1.70;;;;;;;13.29;57.20;98175.34;105149;1286;23460;-79
2022/11/12 09:40:44;;;;;;;3.00;1.70;;;;;;;13.36;57.15;98187.58;105138;1282;25458;-80
2022/11/12 09:43:24;;;;;;;5.80;1.60;;;;;;;13.40;56.82;98189.42;105191;1285;22454;-80
2022/11/12 09:45:57;;;;;;;4.20;1.60;;;;;;;13.48;56.99;98183.22;105226;1303;23026;-80
2022/11/12 09:48:34;;;;;;;4.80;1.80;;;;;;;13.43;56.38;98182.45;105112;1304;24330;-79
2022/11/12 09:51:12;;;;;;;4.70;2.30;;;;;;;13.34;56.38;98183.14;105174;1297;23201;-79
2022/11/12 09:53:49;;;;;;;2.50;1.70;;;;;;;13.34;56.69;98184.89;105172;1304;22472;-79
2022/11/12 09:56:23;;;;;;;2.20;1.70;;;;;;;13.38;57.11;98188.06;105173;1288;22503;-79
2022/11/12 09:58:55;;;;;;;4.10;2.10;;;;;;;13.41;56.66;98182.23;105209;1287;22471;-79
2022/11/12 10:01:42;;;;;;;4.50;1.80;;;;;;;13.38;56.77;98185.20;105179;1303;22988;-79
2022/11/12 10:04:36;;;;;;;3.10;1.90;;;;;;;13.44;57.19;98185.86;105159;1304;25430;-79
2022/11/12 10:07:17;;;;;;;2.70;1.80;;;;;;;13.50;57.01;98184.71;105139;1303;22483;-80
2022/11/12 10:10:00;;;;;;;3.10;1.60;;;;;;;13.50;56.99;98184.23;105178;1304;25426;-79
2022/11/12 10:12:43;;;;;;;2.50;1.40;;;;;;;13.56;57.39;98182.53;105154;1304;24298;-79
2022/11/12 10:18:53;;;;;;;3.80;1.90;;;;;;;13.66;57.26;98181.35;105115;1301;23509;-80
2022/11/12 10:21:36;;;;;;;4.50;2.00;;;;;;;13.79;57.45;98174.00;105198;1291;22461;-80
2022/11/12 10:24:11;;;;;;;3.90;1.70;;;;;;;13.89;57.31;98167.42;105161;1296;22486;-80
2022/11/12 10:26:46;;;;;;;3.80;1.90;;;;;;;13.93;57.12;98168.83;105164;1291;25225;-80
2022/11/12 10:29:27;;;;;;;2.60;1.60;;;;;;;13.99;57.28;98169.12;105218;1297;22511;-80
2022/11/12 10:32:00;;;;;;;3.60;2.20;;;;;;;14.03;57.00;98165.60;105192;1287;22484;-80
2022/11/12 10:34:32;;;;;;;3.60;2.30;;;;;;;14.07;57.47;98162.63;105173;1304;24271;-81
2022/11/12 10:37:07;;;;;;;3.20;1.70;;;;;;;14.16;57.27;98160.68;105163;1288;22463;-81
2022/11/12 10:39:41;;;;;;;4.30;1.90;;;;;;;14.07;56.87;98157.94;105212;1303;22428;-81
2022/11/12 10:42:15;;;;;;;3.20;1.90;;;;;;;14.07;57.55;98157.56;105266;1303;22589;-81
2022/11/12 10:44:47;;;;;;;4.70;2.00;;;;;;;14.18;57.58;98163.63;105192;1302;22589;-81
2022/11/12 10:47:26;;;;;;;4.10;2.20;;;;;;;14.26;57.44;98156.77;105131;1288;25920;-81
2022/11/12 10:50:21;;;;;;;4.00;2.60;;;;;;;14.23;57.04;98155.90;105212;1295;22474;-81
2022/11/12 10:53:06;;;;;;;4.90;2.30;;;;;;;14.26;57.97;98159.49;105176;1303;25439;-81
2022/11/12 10:55:55;;;;;;;6.70;3.50;;;;;;;14.41;58.31;98152.90;105178;1302;26276;-81
2022/11/12 10:58:26;;;;;;;4.10;2.60;;;;;;;14.47;57.84;98151.27;105148;1303;24285;-81
2022/11/12 11:01:01;;;;;;;8.90;3.90;;;;;;;14.48;57.87;98154.48;105168;1303;22469;-81
2022/11/12 11:03:36;;;;;;;6.20;3.20;;;;;;;14.60;58.49;98148.67;105201;1303;22475;-81
2022/11/12 11:06:20;;;;;;;5.40;2.50;;;;;;;14.67;57.62;98147.84;105181;1303;22715;-81
2022/11/12 11:09:08;;;;;;;5.50;3.10;;;;;;;14.70;58.79;98151.84;105203;1304;22471;-82
2022/11/12 11:11:48;;;;;;;3.60;2.20;;;;;;;14.90;58.00;98143.33;105206;1304;22471;-82
2022/11/12 11:14:30;;;;;;;5.40;2.60;;;;;;;14.80;57.53;98145.70;105190;1304;24682;-81
2022/11/12 11:17:11;;;;;;;4.10;1.80;;;;;;;14.74;57.75;98136.66;105150;1303;22582;-81
2022/11/12 11:19:42;;;;;;;;;;;;;;;14.74;57.48;98129.45;105205;1295;22448;-81
2022/11/12 11:22:28;;;;;;;;;;;;;;;14.76;57.79;98134.05;105221;1303;25261;-81
2022/11/12 11:25:12;;;;;;;4.50;2.20;;;;;;;14.81;57.08;98134.48;105172;1297;22475;-81
2022/11/12 11:27:59;;;;;;;4.80;3.30;;;;;;;14.73;57.03;98135.33;105110;1280;22496;-81
2022/11/12 11:30:31;;;;;;;7.50;3.90;;;;;;;14.74;56.90;98132.39;105193;1303;22450;-81
2022/11/12 11:33:28;;;;;;;123.80;52.50;;;;;;;14.82;57.22;98135.33;105229;1303;22494;-81
2022/11/12 11:36:13;;;;;;;4.80;2.80;;;;;;;14.95;57.09;98133.89;105180;1303;22482;-81
2022/11/12 11:39:00;;;;;;;5.50;2.30;;;;;;;14.96;56.53;98126.25;105135;1300;35221;-81
2022/11/12 11:41:48;;;;;;;3.30;1.90;;;;;;;14.91;56.32;98123.95;105164;1304;22477;-81
2022/11/12 11:44:29;;;;;;;10.20;4.10;;;;;;;14.93;56.35;98126.56;105169;1281;26427;-81
2022/11/12 11:47:17;;;;;;;10.30;5.20;;;;;;;15.08;56.48;98120.50;105116;1297;22472;-81
2022/11/12 11:50:09;;;;;;;2.70;1.70;;;;;;;15.17;55.65;98118.66;105185;1296;22473;-81
2022/11/12 11:53:06;;;;;;;5.80;2.90;;;;;;;15.22;55.45;98114.94;105121;1304;22493;-81
2022/11/12 11:55:54;;;;;;;5.60;2.30;;;;;;;15.28;55.52;98114.91;105128;1305;22467;-81
2022/11/12 11:58:47;;;;;;;3.70;1.90;;;;;;;15.41;55.89;98115.46;105194;1290;29507;-80
2022/11/12 12:01:26;;;;;;;6.20;3.20;;;;;;;15.52;55.21;98111.52;105191;1294;22479;-80
2022/11/12 12:04:26;;;;;;;15.90;4.90;;;;;;;15.61;55.11;98111.46;105183;1291;22490;-81
2022/11/12 12:07:21;;;;;;;13.90;10.90;;;;;;;15.66;54.04;98113.21;104377;1282;1067639;-82
2022/11/12 12:10:01;;;;;;;6.40;4.80;;;;;;;15.68;53.71;98109.79;105205;1288;22471;-82
2022/11/12 12:12:51;;;;;;;2.40;1.70;;;;;;;15.66;53.66;98111.94;105147;1304;22479;-81
2022/11/12 12:15:46;;;;;;;2.10;1.50;;;;;;;15.58;52.70;98107.44;105168;1291;22472;-82
2022/11/12 12:18:30;;;;;;;3.70;2.20;;;;;;;15.49;52.23;98109.94;105137;1284;22501;-81
2022/11/12 12:21:10;;;;;;;3.20;1.60;;;;;;;15.50;52.45;98107.15;105190;1304;24150;-81
2022/11/12 12:23:48;;;;;;;2.00;1.00;;;;;;;15.49;51.44;98100.47;105195;1278;25247;-81
2022/11/12 12:26:26;;;;;;;2.50;1.10;;;;;;;15.40;51.07;98100.23;105114;1297;22477;-80
2022/11/12 12:29:04;;;;;;;2.60;1.70;;;;;;;15.40;51.69;98101.30;105195;1284;22628;-81